createdAt,value
2019-04-22T04:04:09.015Z,97780.22
2019-04-22T04:09:14.272Z,97776.95
2019-04-22T04:14:09.329Z,97774.56
2019-04-22T04:24:32.745Z,97775.81
2019-04-22T04:34:28.559Z,97771.63
2019-04-22T04:44:45.307Z,97771.66
2019-04-22T04:59:53.197Z,97770.13
2019-04-22T05:04:48.759Z,97774.64
2019-04-22T05:09:32.418Z,97737.68
2019-04-22T05:14:48.939Z,97775.70
2019-04-22T05:19:47.412Z,97783.72
2019-04-22T05:24:50.750Z,97780.06
2019-04-22T05:30:08.806Z,97780.65
2019-04-22T05:34:55.843Z,97778.33
2019-04-22T05:40:06.180Z,97776.27
2019-04-22T05:45:04.606Z,97772.30
2019-04-22T05:50:02.377Z,97777.50
2019-04-22T05:55:08.290Z,97776.25
2019-04-22T06:00:15.684Z,97759.22
2019-04-22T06:10:21.440Z,97753.58
2019-04-22T06:15:18.355Z,97747.69
2019-04-22T06:20:23.703Z,97751.61
2019-04-22T06:25:39.627Z,97745.01
2019-04-22T06:30:29.164Z,97743.88
2019-04-22T06:40:45.044Z,97737.61
2019-04-22T06:45:58.382Z,97741.27
2019-04-22T06:50:41.769Z,97731.96
2019-04-22T06:55:45.591Z,97730.36
2019-04-22T07:00:45.971Z,97720.64
2019-04-22T07:05:52.464Z,97716.37
2019-04-22T07:10:50.355Z,97712.09
2019-04-22T07:16:00.391Z,97714.64
2019-04-22T07:21:01.425Z,97709.97
2019-04-22T07:26:04.369Z,97700.20
2019-04-22T07:31:13.047Z,97694.70
2019-04-22T07:41:16.964Z,97677.07
2019-04-22T07:46:18.622Z,97675.66
2019-04-22T07:51:19.931Z,97679.82
2019-04-22T07:56:24.212Z,97675.94
2019-04-22T08:01:26.372Z,97673.38
2019-04-22T08:06:31.334Z,97668.89
2019-04-22T08:11:46.275Z,97671.80
2019-04-22T08:16:38.166Z,97660.87
2019-04-22T08:21:44.367Z,97656.47
2019-04-22T08:26:48.175Z,97650.43
2019-04-22T08:31:48.614Z,97640.41
2019-04-22T08:37:12.349Z,97626.42
2019-04-22T08:41:49.831Z,97627.64
2019-04-22T08:51:56.846Z,97608.61
2019-04-22T08:57:01.659Z,97602.25
2019-04-22T09:02:09.914Z,97601.92
2019-04-22T09:12:10.374Z,97588.52
2019-04-22T09:17:16.101Z,97586.33
2019-04-22T09:22:26.630Z,97582.23
2019-04-22T09:27:31.749Z,97576.69
2019-04-22T09:32:38.865Z,97577.38
2019-04-22T09:37:36.380Z,97575.55
2019-04-22T09:42:37.149Z,97558.88
2019-04-22T09:47:33.807Z,97562.08
2019-04-22T09:52:37.540Z,97557.57
2019-04-22T09:57:38.119Z,97542.27
2019-04-22T10:07:47.269Z,97528.58
2019-04-22T10:17:54.009Z,97511.75
2019-04-22T10:22:53.249Z,97503.38
2019-04-22T10:28:04.909Z,97495.84
2019-04-22T10:32:56.252Z,97486.27
2019-04-22T10:37:36.552Z,97484.38
2019-04-22T10:42:41.420Z,97475.59
2019-04-22T10:47:42.815Z,97468.34
2019-04-22T10:52:43.804Z,97467.62
2019-04-22T10:57:44.687Z,97452.25
2019-04-22T11:02:45.838Z,97452.84
2019-04-22T11:07:53.904Z,97442.03
2019-04-22T11:12:51.213Z,97424.31
2019-04-22T11:17:53.548Z,97423.22
2019-04-22T11:22:56.256Z,97417.00
2019-04-22T11:27:57.827Z,97406.84
2019-04-22T11:33:00.440Z,97394.58
2019-04-22T11:38:01.607Z,97393.69
2019-04-22T11:43:04.023Z,97381.67
2019-04-22T11:48:05.689Z,97378.63
2019-04-22T11:53:07.139Z,97365.52
2019-04-22T11:58:08.720Z,97374.97
2019-04-22T12:03:10.147Z,97365.12
2019-04-22T12:08:11.377Z,97361.70
2019-04-22T12:13:12.631Z,97358.03
2019-04-22T12:18:15.204Z,97350.37
2019-04-22T12:23:17.029Z,97349.63
2019-04-22T12:28:19.096Z,97342.34
2019-04-22T12:33:21.230Z,97336.48
2019-04-22T12:38:23.990Z,97332.78
2019-04-22T12:43:26.447Z,97328.60
2019-04-22T12:48:28.209Z,97322.78
2019-04-22T12:53:29.917Z,97306.72
2019-04-22T12:58:31.717Z,97299.34
2019-04-22T13:03:34.116Z,97291.26
2019-04-22T13:08:35.837Z,97280.91
2019-04-22T13:13:36.911Z,97277.81
2019-04-22T13:18:49.318Z,97260.74
2019-04-22T13:23:44.673Z,97267.28
2019-04-22T13:28:45.555Z,97258.72
2019-04-22T13:33:46.984Z,97251.21
2019-04-22T13:38:49.269Z,97247.59
2019-04-22T13:43:51.021Z,97232.65
2019-04-22T13:49:14.687Z,97232.41
2019-04-22T13:59:10.195Z,97218.47
2019-04-22T14:04:24.688Z,97219.96
2019-04-22T14:09:26.434Z,97213.38
2019-04-22T14:14:28.104Z,97209.67
2019-04-22T14:19:29.913Z,97197.67
2019-04-22T14:24:31.209Z,97193.27
2019-04-22T14:29:33.458Z,97185.27
2019-04-22T14:34:34.599Z,97191.14
2019-04-22T14:39:35.851Z,97183.61
2019-04-22T14:50:02.734Z,97166.50
2019-04-22T14:54:54.318Z,97162.22
2019-04-22T14:59:46.157Z,97163.55
2019-04-22T15:04:48.002Z,97156.17
2019-04-22T15:09:50.249Z,97153.86
2019-04-22T15:14:51.344Z,97148.31
2019-04-22T15:20:07.700Z,97146.52
2019-04-22T15:25:10.327Z,97143.66
2019-04-22T15:30:11.838Z,97159.23
2019-04-22T15:35:13.382Z,97144.78
2019-04-22T15:40:14.488Z,97143.39
2019-04-22T15:45:16.864Z,97136.28
2019-04-22T15:50:22.625Z,97141.80
2019-04-22T15:55:24.657Z,97147.44
2019-04-22T16:00:40.741Z,97144.20
2019-04-22T16:05:32.260Z,97137.91
2019-04-22T16:10:33.767Z,97131.70
2019-04-22T16:15:36.349Z,97124.98
2019-04-22T16:20:38.407Z,97139.70
2019-04-22T16:25:51.428Z,97129.27
2019-04-22T16:30:53.249Z,97125.84
2019-04-22T16:35:55.030Z,97124.61
2019-04-22T16:40:56.823Z,97117.02
2019-04-22T16:45:58.069Z,97123.49
2019-04-22T16:51:00.186Z,97125.21
2019-04-22T16:56:02.568Z,97113.86
2019-04-22T17:01:07.018Z,97116.52
2019-04-22T17:06:17.168Z,97110.78
2019-04-22T17:11:20.017Z,97110.11
2019-04-22T17:16:21.252Z,97104.84
2019-04-22T17:21:23.484Z,97099.95
2019-04-22T17:26:26.311Z,97104.67
2019-04-22T17:31:28.859Z,97108.55
2019-04-22T17:36:30.048Z,97106.81
2019-04-22T17:41:51.206Z,97107.43
2019-04-22T17:46:50.927Z,97110.27
2019-04-22T17:52:34.643Z,97109.83
2019-04-22T17:57:22.469Z,97107.60
2019-04-22T18:02:22.657Z,97112.47
2019-04-22T18:07:36.977Z,97117.38
2019-04-22T18:12:38.542Z,97122.55
2019-04-22T18:17:38.638Z,97115.00
2019-04-22T18:22:24.421Z,97133.26
2019-04-22T18:27:49.050Z,97129.48
2019-04-22T18:32:40.189Z,97131.46
2019-04-22T18:37:43.759Z,97135.27
2019-04-22T18:42:49.421Z,97141.50
2019-04-22T18:47:43.669Z,97134.85
2019-04-22T18:52:59.251Z,97129.66
2019-04-22T18:58:01.022Z,97131.84
2019-04-22T19:02:54.171Z,97132.56
2019-04-22T19:08:20.374Z,97130.48
2019-04-22T19:13:48.982Z,97123.06
2019-04-22T19:18:23.997Z,97133.11
2019-04-22T19:23:25.869Z,97124.19
2019-04-22T19:28:29.076Z,97126.61
2019-04-22T19:33:29.036Z,97116.63
2019-04-22T19:43:47.405Z,97122.83
2019-04-22T19:48:50.288Z,97120.22
2019-04-22T19:53:51.319Z,97130.20
2019-04-22T19:58:47.688Z,97126.27
2019-04-22T20:04:13.687Z,97112.48
2019-04-22T20:09:12.188Z,97110.14
2019-04-22T20:14:06.389Z,97112.09
2019-04-22T20:19:19.522Z,97113.98
2019-04-22T20:24:02.180Z,97121.87
2019-04-22T20:29:24.355Z,97116.70
2019-04-22T20:34:22.260Z,97111.34
2019-04-22T20:39:20.387Z,97116.71
2019-04-22T21:06:10.320Z,97097.86
2019-04-22T21:11:17.800Z,97083.31
2019-04-22T21:16:22.307Z,97087.38
2019-04-22T21:21:25.029Z,97094.53
2019-04-22T21:26:24.081Z,97091.86
2019-04-22T21:42:24.659Z,97075.23
2019-04-22T21:47:28.927Z,97082.29
2019-04-22T21:52:28.089Z,97070.87
2019-04-22T21:57:57.732Z,97068.95
2019-04-22T22:02:58.542Z,97074.72
2019-04-22T22:07:48.071Z,97048.19
2019-04-22T22:13:00.804Z,97054.41
2019-04-22T22:17:58.709Z,97046.58
2019-04-22T22:23:20.336Z,97039.17
2019-04-22T22:28:07.779Z,97026.94
2019-04-22T22:33:10.565Z,97035.20
2019-04-22T22:38:13.409Z,97032.27
2019-04-22T22:42:57.858Z,97018.69
2019-04-22T22:53:29.108Z,97004.20
2019-04-22T22:58:30.223Z,96988.72
2019-04-22T23:08:32.938Z,96976.29
2019-04-22T23:13:40.446Z,96972.97
2019-04-22T23:18:16.243Z,96962.59
2019-04-22T23:23:38.179Z,96969.70
2019-04-22T23:28:37.273Z,96959.70
2019-04-22T23:33:49.448Z,96948.30
2019-04-22T23:39:02.419Z,96942.59
2019-04-22T23:44:02.017Z,96933.34
2019-04-22T23:48:53.529Z,96930.52
2019-04-22T23:54:11.113Z,96918.43
2019-04-22T23:59:06.840Z,96924.17
